Terminal Aerodrome Forecast
Issued by NWS

Home | Current Version | Previous Version | Text Only | Print | Product List | Glossary On
Versions: 1 2 3 4 5 6 7 8 9 10 11 12 13 14 15 16 17 18 19
000
FTUS44 KBMX 210500
TAFTOI
TAF
KTOI 210525Z 2106/2206 10004KT P6SM SKC
     FM211000 00000KT 5SM BR SKC
     FM211500 12005KT P6SM BKN150=

USA.gov is the U.S. government's official web portal to all federal, state and local government web resources and services.